Airfield :
LOGIN :

Register | Disclaimer

   EN    FR    IT 

 










Legend :    VFR   Marginal VFR   IFR   Intensive IFR   Very Intensive IFR
Visi :
Ceiling :
>= 8 km
>= 3000ft
5 to 8 km
1000 to 3000 ft
1500m to 5 km
500 to 1000 ft
800 to 1500m
200 to 500 ft
< 800m
< 200 ft
Symbols :   Thunderstorms  Fog  Heavy snow  Heavy precipitations  Wind > 20 kt
SIGMETs :     Misc.  Thunderstorms  Icing  Turbulence  Mountain Waves  Volcanic Ashes






- Airport Elevation : 15 ft
- IATA code : FCO


LIRF - Roma Leonardo da Vinci Fiumicino

CURRENT METAR :
  • 240520Z 07004KT 9999 SCT020 BKN025 11/09 Q1023 NOSIG

EXPIRED METARs :
  • 240450Z 10002KT 9999 BKN020 BKN025 10/10 Q1023 NOSIG
  • 240420Z 06003KT 9999 BKN025 11/10 Q1023 NOSIG
  • 240350Z VRB02KT 9999 BKN020 11/10 Q1024 NOSIG
  • 240320Z 01003KT 9999 BKN020 10/10 Q1024 NOSIG
  • 240250Z 36003KT 9999 BKN020 11/10 Q1024 NOSIG

TAF TAF LIRF
Valid from the 24 at 06:00 until the 25 at 12:00 UTC


240500Z 2406/2512 VRB05KT 7000 SCT020 BKN050
BECMG 2409/2411 18010KT



MET'MAP, your aeronautical weather chart ! - Copyright ORBIFLY December 2007 - Disclaimer

ORBIFLY MET'MAP TEAM :

Programming & Development : Alexandra Zaïnal
Concept & original design : Baudouin d'Aumeries
Assistance for programming : Marc-Olivier Méhu
Technical & hardware support : Manuel Goepfert

Contact : metmap@orbifly.com




SOURCES & CREDITS :

   NOAA